createdAt,value
2023-01-23T06:00:49.987Z,1.17
2023-01-23T06:03:35.658Z,1.19
2023-01-23T06:06:22.561Z,1.20
2023-01-23T06:08:49.846Z,1.23
2023-01-23T06:11:16.562Z,1.22
2023-01-23T06:13:43.866Z,1.23
2023-01-23T06:16:11.162Z,1.26
2023-01-23T06:18:38.776Z,1.28
2023-01-23T06:21:06.154Z,1.27
2023-01-23T06:23:34.776Z,1.29
2023-01-23T06:26:02.834Z,1.26
2023-01-23T06:28:31.237Z,1.26
2023-01-23T06:31:02.331Z,1.30
2023-01-23T06:33:49.929Z,1.30
2023-01-23T06:36:17.538Z,1.34
2023-01-23T06:38:44.862Z,1.32
2023-01-23T06:41:12.945Z,1.35
2023-01-23T06:43:46.717Z,1.35
2023-01-23T06:46:19.800Z,1.38
2023-01-23T06:48:47.040Z,1.35
2023-01-23T06:51:13.723Z,1.37
2023-01-23T06:53:43.965Z,1.39
2023-01-23T06:56:12.104Z,1.39
2023-01-23T06:58:39.684Z,1.39
2023-01-23T07:01:13.059Z,1.38
2023-01-23T07:04:13.053Z,1.35
2023-01-23T07:06:41.083Z,1.36
2023-01-23T07:09:09.339Z,1.34
2023-01-23T07:11:37.306Z,1.38
2023-01-23T07:14:06.120Z,1.39
2023-01-23T07:16:35.872Z,1.41
2023-01-23T07:19:04.366Z,1.38
2023-01-23T07:21:32.919Z,1.34
2023-01-23T07:24:00.252Z,1.31
2023-01-23T07:26:26.826Z,1.32
2023-01-23T07:28:54.268Z,1.29
2023-01-23T07:31:20.962Z,1.29
2023-01-23T07:33:48.557Z,1.28
2023-01-23T07:36:15.305Z,1.33
2023-01-23T07:38:42.574Z,1.35
2023-01-23T07:41:09.171Z,1.35
2023-01-23T07:43:36.467Z,1.33
2023-01-23T07:46:03.485Z,1.36
2023-01-23T07:48:30.501Z,1.37
2023-01-23T07:50:57.164Z,1.38
2023-01-23T07:53:24.359Z,1.39
2023-01-23T07:55:50.967Z,1.37
2023-01-23T07:58:18.215Z,1.35
2023-01-23T08:00:45.785Z,1.34
2023-01-23T08:03:12.828Z,1.39
2023-01-23T08:05:39.609Z,1.39
2023-01-23T08:08:13.591Z,1.40
2023-01-23T08:10:41.256Z,1.40
2023-01-23T08:13:08.523Z,1.41
2023-01-23T08:15:37.171Z,1.42
2023-01-23T08:18:04.525Z,1.42
2023-01-23T08:20:31.117Z,1.44
2023-01-23T08:22:59.319Z,1.44
2023-01-23T08:25:26.021Z,1.45
2023-01-23T08:27:53.278Z,1.47
2023-01-23T08:30:20.250Z,1.42
2023-01-23T08:32:47.697Z,1.44
2023-01-23T08:35:14.455Z,1.46
2023-01-23T08:37:42.527Z,1.48
2023-01-23T08:40:10.004Z,1.47
2023-01-23T08:42:38.297Z,1.47
2023-01-23T08:45:05.227Z,1.48
2023-01-23T08:47:36.917Z,1.51
2023-01-23T08:50:05.573Z,1.54
2023-01-23T08:52:34.872Z,1.55
2023-01-23T08:55:01.498Z,1.52
2023-01-23T08:57:28.484Z,1.51
2023-01-23T08:59:55.085Z,1.52
2023-01-23T09:02:22.421Z,1.52
2023-01-23T09:04:50.144Z,1.53
2023-01-23T09:07:17.370Z,1.52
2023-01-23T09:09:44.021Z,1.55
2023-01-23T09:12:11.271Z,1.56
2023-01-23T09:14:37.894Z,1.55
2023-01-23T09:17:05.728Z,1.49
2023-01-23T09:19:32.905Z,1.49
2023-01-23T09:22:00.168Z,1.53
2023-01-23T09:24:26.732Z,1.55
2023-01-23T09:26:53.934Z,1.61
2023-01-23T09:29:20.527Z,1.64
2023-01-23T09:31:47.802Z,1.66
2023-01-23T09:34:16.959Z,1.69
2023-01-23T09:36:44.448Z,1.69
2023-01-23T09:39:12.276Z,1.71
2023-01-23T09:41:40.256Z,1.71
2023-01-23T09:44:20.305Z,1.72
2023-01-23T09:46:55.271Z,1.72
2023-01-23T09:49:46.498Z,1.74
2023-01-23T09:52:18.756Z,1.76
2023-01-23T09:54:53.128Z,1.79
2023-01-23T09:57:35.841Z,1.83
2023-01-23T10:00:25.286Z,1.78
2023-01-23T10:02:56.774Z,1.80
2023-01-23T10:05:36.796Z,1.85
2023-01-23T10:08:19.309Z,1.85
2023-01-23T10:11:27.084Z,1.87
2023-01-23T10:14:20.783Z,1.86
2023-01-23T10:17:07.541Z,1.86
2023-01-23T10:19:47.007Z,1.85
2023-01-23T10:22:23.368Z,1.84
2023-01-23T10:24:56.312Z,1.84
2023-01-23T10:27:35.976Z,1.85
2023-01-23T10:30:28.009Z,1.85
2023-01-23T10:32:59.401Z,1.89
2023-01-23T10:35:53.754Z,1.91
2023-01-23T10:38:27.771Z,1.94
2023-01-23T10:41:13.664Z,1.92
2023-01-23T10:43:51.699Z,1.95
2023-01-23T10:46:23.830Z,1.96
2023-01-23T10:48:51.994Z,1.98
2023-01-23T10:51:46.334Z,1.98
2023-01-23T10:54:30.380Z,1.99
2023-01-23T10:57:00.178Z,2.00
2023-01-23T10:59:32.489Z,1.97
2023-01-23T11:02:21.829Z,1.97
2023-01-23T11:04:51.872Z,1.92
2023-01-23T11:07:23.678Z,1.93
2023-01-23T11:10:07.224Z,1.96
2023-01-23T11:12:46.247Z,1.93
2023-01-23T11:15:32.219Z,1.96
2023-01-23T11:18:01.212Z,1.98
2023-01-23T11:20:27.961Z,2.01
2023-01-23T11:23:17.264Z,1.98
2023-01-23T11:25:54.919Z,2.02
2023-01-23T11:28:47.370Z,2.01
2023-01-23T11:31:21.620Z,2.04
2023-01-23T11:33:57.174Z,2.06
2023-01-23T11:36:54.861Z,2.04
2023-01-23T11:39:36.082Z,2.06
2023-01-23T11:42:03.399Z,2.07
2023-01-23T11:44:38.139Z,2.07
2023-01-23T11:47:30.611Z,2.09
2023-01-23T11:50:05.374Z,2.08
2023-01-23T11:52:38.435Z,2.07
2023-01-23T11:55:14.062Z,2.10
2023-01-23T11:58:02.912Z,2.12
2023-01-23T12:01:09.023Z,2.15
2023-01-23T12:04:20.413Z,2.16
2023-01-23T12:06:50.136Z,2.16
2023-01-23T12:09:21.648Z,2.15
2023-01-23T12:12:17.146Z,2.18
2023-01-23T12:14:43.724Z,2.21
2023-01-23T12:17:27.927Z,2.21
2023-01-23T12:20:22.814Z,2.23
2023-01-23T12:23:02.130Z,2.22
2023-01-23T12:25:37.759Z,2.23
2023-01-23T12:28:25.201Z,2.29
2023-01-23T12:31:18.286Z,2.24
2023-01-23T12:33:47.697Z,2.28
2023-01-23T12:36:59.475Z,2.28
2023-01-23T12:39:35.969Z,2.29
2023-01-23T12:42:08.963Z,2.27
2023-01-23T12:44:40.927Z,2.31
2023-01-23T12:47:13.274Z,2.31
2023-01-23T12:49:54.051Z,2.33
2023-01-23T12:52:33.275Z,2.36
2023-01-23T12:55:26.315Z,2.34
2023-01-23T12:58:08.379Z,2.32
2023-01-23T13:01:12.906Z,2.28
2023-01-23T13:03:47.192Z,2.25
2023-01-23T13:06:19.942Z,2.18
2023-01-23T13:09:02.764Z,2.16
2023-01-23T13:12:22.574Z,2.15
2023-01-23T13:15:14.673Z,2.13
2023-01-23T13:17:51.294Z,2.13
2023-01-23T13:21:12.129Z,2.08
2023-01-23T13:23:39.475Z,2.10
2023-01-23T13:26:23.368Z,2.07
2023-01-23T13:29:02.346Z,2.07
2023-01-23T13:31:50.651Z,2.05
2023-01-23T13:34:17.361Z,2.06
2023-01-23T13:36:49.851Z,2.07
2023-01-23T13:39:16.523Z,2.07
2023-01-23T13:42:14.933Z,2.10
2023-01-23T13:45:16.465Z,2.10
2023-01-23T14:22:44.613Z,2.22
2023-01-23T14:25:17.388Z,2.19
2023-01-23T14:27:53.426Z,2.19
2023-01-23T14:30:27.094Z,2.20
2023-01-23T14:32:55.430Z,2.20
2023-01-23T14:35:30.995Z,2.21
2023-01-23T14:38:01.298Z,2.18
2023-01-23T14:40:31.873Z,2.21
2023-01-23T14:43:10.075Z,2.21
2023-01-23T14:45:37.454Z,2.19
2023-01-23T14:48:08.097Z,2.20
2023-01-23T14:50:35.258Z,2.21
2023-01-23T14:53:05.484Z,2.21
2023-01-23T14:55:37.245Z,2.22
2023-01-23T14:58:05.131Z,2.23
2023-01-23T15:00:33.847Z,2.23
2023-01-23T15:03:01.196Z,2.24
2023-01-23T15:05:28.459Z,2.26
2023-01-23T15:08:03.320Z,2.25
2023-01-23T15:10:34.944Z,2.23
2023-01-23T15:13:05.880Z,2.26
2023-01-23T15:15:34.654Z,2.23
2023-01-23T15:18:03.841Z,2.21
2023-01-23T15:20:40.609Z,2.22
2023-01-23T15:23:24.290Z,2.21
2023-01-23T15:26:26.650Z,2.18
2023-01-23T15:29:26.212Z,2.15
2023-01-23T15:31:55.259Z,2.17
2023-01-23T15:34:26.492Z,2.15
2023-01-23T15:37:06.228Z,2.18
2023-01-23T15:39:42.373Z,2.19
2023-01-23T15:42:11.922Z,2.18
2023-01-23T15:44:40.163Z,2.16
2023-01-23T15:47:07.105Z,2.13
2023-01-23T15:49:36.576Z,2.11
2023-01-23T15:52:16.284Z,2.10
2023-01-23T15:54:44.084Z,2.08
2023-01-23T15:57:14.133Z,2.06
2023-01-23T15:59:41.497Z,2.05
2023-01-23T16:02:29.737Z,2.05
2023-01-23T16:04:57.700Z,2.05
2023-01-23T16:07:30.122Z,2.08
2023-01-23T16:09:58.057Z,2.06
2023-01-23T16:12:28.923Z,2.04
2023-01-23T16:14:57.683Z,2.03
2023-01-23T16:17:24.316Z,2.03
2023-01-23T16:19:51.200Z,2.01
2023-01-23T16:22:26.266Z,1.96
2023-01-23T16:24:53.862Z,1.96
2023-01-23T16:27:27.156Z,1.98
2023-01-23T16:29:55.086Z,1.95
2023-01-23T16:32:21.854Z,1.94
2023-01-23T16:34:49.232Z,1.95
2023-01-23T16:37:17.777Z,1.92
2023-01-23T16:39:47.650Z,1.90
2023-01-23T16:42:18.886Z,1.88
2023-01-23T16:44:46.100Z,1.86
2023-01-23T16:47:12.698Z,1.85
2023-01-23T16:49:51.420Z,1.83
2023-01-23T16:52:22.099Z,1.81
2023-01-23T16:54:52.485Z,1.78
2023-01-23T16:57:21.096Z,1.79
2023-01-23T16:59:50.175Z,1.79
2023-01-23T17:02:21.851Z,1.77
2023-01-23T17:04:49.378Z,1.78
2023-01-23T17:07:18.375Z,1.74
2023-01-23T17:09:47.671Z,1.77
2023-01-23T17:12:25.210Z,1.74
2023-01-23T17:14:52.903Z,1.75
2023-01-23T17:17:29.258Z,1.74
2023-01-23T17:19:57.820Z,1.72
2023-01-23T17:22:32.965Z,1.73
2023-01-23T17:25:00.175Z,1.70
2023-01-23T17:27:26.872Z,1.72
2023-01-23T17:29:54.081Z,1.70
2023-01-23T17:32:31.309Z,1.70
2023-01-23T17:35:02.976Z,1.69
2023-01-23T17:37:30.675Z,1.71
2023-01-23T17:39:57.842Z,1.72
2023-01-23T17:42:24.424Z,1.71
2023-01-23T17:44:51.290Z,1.68
2023-01-23T17:47:18.858Z,1.69
2023-01-23T17:49:51.862Z,1.64
2023-01-23T17:52:21.554Z,1.66
2023-01-23T17:54:49.385Z,1.65
2023-01-23T17:57:16.636Z,1.67
2023-01-23T17:59:43.254Z,1.65
2023-01-23T18:02:23.980Z,1.62
2023-01-23T18:04:51.052Z,1.61
2023-01-23T18:07:17.668Z,1.62
2023-01-23T18:09:44.646Z,1.62
2023-01-23T18:12:29.340Z,1.61
2023-01-23T18:15:05.935Z,1.63
2023-01-23T18:18:00.282Z,1.63
2023-01-23T18:20:28.796Z,1.61
2023-01-23T18:22:56.660Z,1.63
2023-01-23T18:25:26.455Z,1.59
2023-01-23T18:27:55.240Z,1.60
2023-01-23T18:30:38.998Z,1.63
2023-01-23T18:33:27.121Z,1.65
2023-01-23T18:36:19.458Z,1.65
2023-01-23T18:38:58.159Z,1.65
2023-01-23T18:41:27.761Z,1.60
2023-01-23T18:44:08.007Z,1.58
2023-01-23T18:46:35.413Z,1.57
2023-01-23T18:49:02.338Z,1.55
2023-01-23T18:51:42.556Z,1.56
2023-01-23T18:54:28.510Z,1.57
2023-01-23T18:56:57.935Z,1.53
2023-01-23T18:59:30.944Z,1.54
2023-01-23T19:02:08.518Z,1.50
2023-01-23T19:04:46.762Z,1.49
2023-01-23T19:07:18.478Z,1.51
2023-01-23T19:09:47.343Z,1.53
2023-01-23T19:13:10.883Z,1.52
2023-01-23T19:15:40.694Z,1.52
2023-01-23T19:18:40.312Z,1.51
2023-01-23T19:21:10.552Z,1.49
2023-01-23T19:23:39.234Z,1.47
2023-01-23T19:26:10.219Z,1.45
2023-01-23T19:28:38.556Z,1.43
2023-01-23T19:31:09.942Z,1.42
2023-01-23T19:33:36.609Z,1.42
2023-01-23T19:36:04.932Z,1.41
2023-01-23T19:38:31.491Z,1.41
2023-01-23T19:40:58.412Z,1.40
2023-01-23T19:43:25.268Z,1.38
2023-01-23T19:45:53.114Z,1.41
2023-01-23T19:48:19.690Z,1.37
2023-01-23T19:50:47.892Z,1.38
2023-01-23T19:53:14.657Z,1.40
2023-01-23T19:55:42.020Z,1.46
2023-01-23T19:58:09.054Z,1.46
2023-01-23T20:00:36.484Z,1.45
2023-01-23T20:03:04.929Z,1.50
2023-01-23T20:05:32.326Z,1.50
2023-01-23T20:07:59.118Z,1.50
2023-01-23T20:10:26.385Z,1.52
2023-01-23T20:12:54.254Z,1.53
2023-01-23T20:15:24.617Z,1.49
2023-01-23T20:17:52.210Z,1.54
2023-01-23T20:20:20.145Z,1.56
2023-01-23T20:22:47.321Z,1.56
2023-01-23T20:25:16.690Z,1.53
2023-01-23T20:27:44.187Z,1.51
2023-01-23T20:30:17.589Z,1.50
2023-01-23T20:32:44.409Z,1.51
2023-01-23T20:35:12.103Z,1.52
2023-01-23T20:37:39.034Z,1.53
2023-01-23T20:40:08.770Z,1.51
2023-01-23T20:42:36.123Z,1.51
2023-01-23T20:45:03.492Z,1.48
2023-01-23T20:47:30.534Z,1.49
2023-01-23T20:49:57.135Z,1.49
2023-01-23T20:52:43.175Z,1.50
2023-01-23T20:55:10.323Z,1.46
2023-01-23T20:57:55.222Z,1.47
2023-01-23T21:00:22.569Z,1.49
2023-01-23T21:02:49.333Z,1.47
2023-01-23T21:05:16.694Z,1.50
2023-01-23T21:07:43.435Z,1.44
2023-01-23T21:10:10.554Z,1.50
2023-01-23T21:12:37.805Z,1.53
2023-01-23T21:15:04.936Z,1.51
2023-01-23T21:17:31.911Z,1.49
2023-01-23T21:19:58.497Z,1.53
2023-01-23T21:22:25.716Z,1.53
2023-01-23T21:24:52.328Z,1.54
2023-01-23T21:27:21.272Z,1.54
2023-01-23T21:29:48.788Z,1.53
